Date,TemperatureHighF,TemperatureAvgF,TemperatureLowF,DewpointHighF,DewpointAvgF,DewpointLowF,HumidityHigh,HumidityAvg,HumidityLow,PressureMaxIn,PressureMinIn,WindSpeedMaxMPH,WindSpeedAvgMPH,GustSpeedMaxMPH,PrecipitationSumIn
2013-3-1,36.0,33.6,31.3,32.0,30.7,29.0,96,89,80,29.92,29.87,5,2,0,0.02
2013-3-2,33.3,30.3,28.0,31.0,28.1,25.0,96,91,86,30.01,29.89,7,2,0,0.06
2013-3-3,43.1,31.9,22.6,25.0,20.7,17.0,87,66,37,30.03,29.94,7,2,0,0.01
2013-3-4,56.1,42.9,28.0,37.0,28.5,21.0,80,59,42,29.99,29.70,12,3,0,0.01
2013-3-5,56.0,46.4,31.5,54.0,41.1,21.0,96,82,57,29.87,29.53,14,5,0,0.55
2013-3-6,40.8,33.7,25.5,32.0,26.1,22.0,89,74,64,30.15,29.86,12,4,0,0.55
2013-3-7,45.6,33.5,24.8,33.0,27.6,22.0,92,79,60,30.24,30.15,10,1,0,0.00
2013-3-8,59.2,40.4,23.5,36.0,27.8,22.0,94,65,33,30.26,30.09,7,1,0,0.00
2013-3-9,63.1,51.1,36.4,40.0,34.3,27.0,76,54,34,30.10,29.89,11,2,0,0.00
2013-3-10,69.5,62.1,53.7,51.0,42.2,36.0,59,49,43,29.88,29.64,18,7,0,0.00
2013-3-11,63.0,46.6,37.8,53.0,42.7,30.0,100,86,67,29.83,29.61,12,3,0,0.04
2013-3-12,54.1,42.8,31.5,37.0,30.8,26.0,86,65,43,30.01,29.83,7,2,0,0.04
2013-3-13,46.3,38.0,28.0,29.0,25.0,20.0,81,61,44,30.25,29.99,10,2,0,0.00
2013-3-14,50.5,36.0,21.1,35.0,24.2,18.0,87,65,36,30.29,30.07,7,1,0,0.00
2013-3-15,74.7,54.6,31.1,51.0,41.0,28.0,95,64,42,30.07,29.73,13,2,0,0.00
2013-3-16,76.4,65.8,57.5,54.0,50.6,46.0,75,59,44,29.75,29.64,11,3,0,0.00
2013-3-17,69.7,55.5,45.1,57.0,48.9,43.0,93,79,59,29.78,29.63,4,1,0,0.00
2013-3-18,62.9,58.0,44.2,59.0,54.3,41.0,97,88,77,29.83,29.55,13,4,0,0.91
2013-3-19,57.4,45.1,31.7,43.0,31.1,21.0,98,64,27,30.02,29.83,7,1,0,0.01
2013-3-20,54.9,41.1,29.3,34.0,26.7,19.0,78,58,37,30.02,29.85,12,2,0,0.00
2013-3-21,45.7,32.3,19.3,24.0,18.1,14.0,82,58,36,29.95,29.81,6,1,0,0.00
2013-3-22,48.1,40.4,32.2,39.0,28.3,20.0,91,63,52,29.89,29.80,4,1,0,0.06
2013-3-23,56.6,47.1,41.2,49.0,43.7,39.0,95,88,72,29.84,29.55,5,0,0,0.09
2013-3-24,57.4,47.1,34.9,54.0,43.5,27.0,98,88,69,29.59,29.25,16,4,0,0.13
2013-3-25,34.7,33.0,31.1,29.0,26.4,24.0,90,76,69,29.99,29.59,16,5,0,0.13
2013-3-26,38.2,33.9,29.6,31.0,28.6,27.0,95,81,66,30.20,29.99,7,2,0,0.07
2013-3-27,53.2,38.4,24.2,33.0,27.2,22.0,94,67,39,30.26,30.14,7,1,0,0.00
2013-3-28,60.4,49.7,30.3,39.0,34.1,25.0,88,57,41,30.23,30.11,5,0,0,0.00
2013-3-29,59.0,49.0,42.5,49.0,40.9,34.0,99,75,55,30.16,30.01,3,0,0,0.07
2013-3-30,60.7,51.6,44.7,54.0,48.8,44.0,98,91,62,30.04,29.78,7,1,0,0.27
2013-3-31,60.3,53.8,42.9,56.0,52.0,42.0,97,93,84,29.78,29.70,5,1,0,0.01